Tiempo atmosférico en la estación meteorológica de Fuengirola, Málaga (3 m.)



Fecha
DESCASC
Temp. máxima en grados centígrados (hora)
DESCASC
Temp. mínima en grados centígrados (hora)
DESCASC
Temp. media en grados centígrados
DESCASC
Racha de viento máxima en m/sg (hora)
DESCASC
Velocidad máxima media en intervalos de 10 minutos(hora)
DESCASC
Precipitaciones diarias en mm
DESCASC
Precipitaciones de 00:00 a 06:00 en mm
DESCASC
Precipitaciones de 06:00 a 12:00 en mm
DESCASC
Precipitaciones de 12:00 a 18:00 en mm
DESCASC
Precipitaciones de 18:00 a 24:00 en mm
DESCASC
16-01-2020 -- (--) -- (--) -- 4.72 (04:50) 2.78 (04:50) 0 0 0 0 0
15-01-2020 -- (--) -- (--) -- 6.39 (20:50) 4.17 (21:10) 0 0 0 0 0
14-01-2020 -- (--) -- (--) -- 5.28 (03:40) 2.78 (04:20) 0 0 0 0 0
13-01-2020 -- (--) -- (--) -- 4.72 (17:20) 2.22 (01:50) 0 0 0 0 0
12-01-2020 -- (--) -- (--) -- 5 (16:10) 3.33 (15:10) 0 0 0 0 0
11-01-2020 -- (--) -- (--) -- 5.56 (00:40) 3.89 (00:50) 0 0 0 0 0
10-01-2020 -- (--) -- (--) -- 13.33 (19:00) 5 (19:00) 0 0 0 0 0
09-01-2020 -- (--) -- (--) -- 5.28 (00:40) 3.61 (00:10) 0 0 0 0 0
08-01-2020 -- (--) -- (--) -- 6.67 (13:40) 3.61 (23:30) 0 0 0 0 0
07-01-2020 -- (--) -- (--) -- 5 (15:20) 2.5 (05:20) 0 0 0 0 0
06-01-2020 -- (--) -- (--) -- 5.28 (14:20) 4.17 (14:30) 0 0 0 0 0
05-01-2020 -- (--) -- (--) -- 9.72 (03:30) 7.5 (03:30) 0 0 0 0 0
04-01-2020 -- (--) -- (--) -- 9.72 (22:50) 7.22 (23:00) 0 0 0 0 0
03-01-2020 -- (--) -- (--) -- 6.67 (13:10) 3.61 (12:20) 0 0 0 0 0
02-01-2020 -- (--) -- (--) -- 5.28 (09:20) 3.33 (15:30) 0 0 0 0 0
01-01-2020 -- (--) -- (--) -- 4.44 (02:10) 2.22 (14:20) 0 0 0 0 0
31-12-2019 -- (--) -- (--) -- 6.11 (10:50) 4.17 (11:30) 0 0 0 0 0
30-12-2019 -- (--) -- (--) -- 8.89 (08:40) 6.39 (08:40) 0 0 0 0 0
29-12-2019 -- (--) -- (--) -- 8.89 (09:40) 5.83 (04:10) 0 0 0 0 0
28-12-2019 -- (--) -- (--) -- 8.89 (10:10) 5.28 (21:50) 0 0 0 0 0
27-12-2019 -- (--) -- (--) -- 7.5 (03:40) 4.44 (16:10) 0 0 0 0 0
26-12-2019 -- (--) -- (--) -- 4.17 (04:00) 2.22 (07:40) 0 0 0 0 0
25-12-2019 -- (--) -- (--) -- 5 (04:30) 2.78 (00:10) 0 0 0 0 0
24-12-2019 -- (--) -- (--) -- 7.22 (13:00) 3.89 (11:50) 0 0 0 0 0
23-12-2019 -- (--) -- (--) -- 8.61 (09:50) 5 (15:40) 0 0 0 0 0
22-12-2019 -- (--) -- (--) -- 6.67 (04:50) 3.06 (04:50) 0 0 0 0 0
21-12-2019 -- (--) -- (--) -- 17.22 (01:00) 5.83 (05:40) 4.2 1.8 0.1 2.2 0.1
20-12-2019 -- (--) -- (--) -- 17.22 (05:20) 5 (05:20) 20 3.1 9.9 6 1

Gráficas

Temp. máximas Temp. mínimas Temp. medias Precipitaciones Rachas de viento máximas Velocidades máximas media en intervalos de 10 minutos

Datos horarios

Fecha y hora oficial Temperatura (ºC) Velocidad del viento (km/h) Dirección del viento Racha (km/h) Dirección de racha Precipitación (mm) Presión (hPa) Tendencia (hPa) Humedad (%)
2020-01-18 23:00:00 -- 2 Noroeste 17 Oeste 0 1023.3 -2.6 98
2020-01-18 22:00:00 -- 5 Oeste 17 Oeste 0 1024.2 -2.2 97
2020-01-18 21:00:00 -- 6 Oeste 17 Oeste 0 1025.2 -1.6 96
2020-01-18 20:00:00 -- 0 Calma 10 Este 0 1025.9 -1.5 96
2020-01-18 19:00:00 -- 8 Este 11 Este 0 1026.4 -1.2 95
2020-01-18 18:00:00 -- 4 Este 9 Nordeste 0 1026.8 -1.1 92
2020-01-18 17:00:00 -- 2 Sudoeste 8 Sudoeste 0 1027.4 -1.3 91
2020-01-18 16:00:00 -- 5 Sur 11 Sur 0 1027.6 -2.3 91
2020-01-18 15:00:00 -- 6 Sur 13 Sudoeste 0 1027.9 -3.2 90
2020-01-18 14:00:00 -- 0 Calma 6 Sudoeste 0 1028.7 -2.4 83
2020-01-18 13:00:00 -- 0 Calma 12 Sudoeste 0 1029.9 -0.5 87
2020-01-18 12:00:00 -- 4 Oeste 11 Oeste 0 1031.1 1.2 84
2020-01-18 11:00:00 -- 4 Noroeste 15 Oeste 0 1031.1 1.4 82
2020-01-18 10:00:00 -- 5 Noroeste 12 Oeste 0 1030.4 1.1 81
2020-01-18 09:00:00 -- 7 Noroeste 14 Noroeste 0 1029.9 0.7 82
2020-01-18 08:00:00 -- 7 Noroeste 13 Oeste 0 1029.7 0.3 79
2020-01-18 07:00:00 -- 4 Noroeste 16 Noroeste 0 1029.3 -0.5 79
2020-01-18 06:00:00 -- 3 Noroeste 9 Noroeste 0 1029.2 -0.3 80
2020-01-18 05:00:00 -- 3 Noroeste 8 Noroeste 0 1029.4 -0.4 82
2020-01-18 04:00:00 -- 3 Noroeste 7 Norte 0 1029.8 -0.2 80
2020-01-18 03:00:00 -- 4 Norte 12 Oeste 0 1029.5 -0.8 69
2020-01-18 02:00:00 -- 6 Noroeste 14 Oeste 0 1029.8 -0.6 67
2020-01-18 01:00:00 -- 5 Noroeste 10 Oeste 0 1030 -0.2 68
2020-01-18 00:00:00 -- 5 Noroeste 14 Noroeste 0 1030.3 0.2 71
2020-01-17 23:00:00 -- 8 Noroeste 17 Oeste 0 1030.4 0.3 74
2020-01-17 22:00:00 -- 9 Oeste 16 Oeste 0 1030.2 0.6 74
2020-01-17 21:00:00 -- 4 Noroeste 12 Norte 0 1030.1 1.2 76
2020-01-17 20:00:00 -- 4 Noroeste 8 Oeste 0 1030.1 1.5 76
2020-01-17 19:00:00 -- 0 Calma 5 Sudeste 0 1029.6 1 76
2020-01-17 18:00:00 -- 3 Sudoeste 12 Sur 0 1028.9 -0.1 74
2020-01-17 17:00:00 -- 4 Sur 12 Oeste 0 1028.6 -1.2 78
2020-01-17 16:00:00 -- 2 Oeste 20 Sur 0 1028.6 -2.2 83
2020-01-17 15:00:00 -- 3 Sudoeste 16 Sudoeste 0 1029 -2.5 78
2020-01-17 14:00:00 -- 9 Sudoeste 17 Sur 0 1029.8 -1.7 76
2020-01-17 13:00:00 -- 10 Sudoeste 19 Sur 0 1030.8 0.1 85
2020-01-17 12:00:00 -- 8 Sudoeste 16 Sur 0 1031.5 0.8 82
2020-01-17 11:00:00 -- 0 Calma 21 Oeste 0 1031.5 1.1 68
2020-01-17 10:00:00 -- 8 Noroeste 18 Oeste 0 1030.7 1.1 76
2020-01-17 09:00:00 -- 11 Oeste 17 Oeste 0 1030.7 1.7 80
2020-01-17 08:00:00 -- 7 Noroeste 15 Noroeste 0 1030.4 1.4 82
2020-01-17 07:00:00 -- 5 Noroeste 17 Oeste 0 1029.6 0.4 81
2020-01-17 06:00:00 -- 3 Norte 15 Oeste 0 1029 0.1 82
2020-01-17 05:00:00 -- 7 Noroeste 13 Noroeste 0 1029 -0.3 85
2020-01-17 04:00:00 -- 6 Noroeste 15 Oeste 0 1029.2 0 85
2020-01-17 03:00:00 -- 5 Noroeste 16 Oeste 0 1028.9 -0.5 86
2020-01-17 02:00:00 -- 8 Oeste 14 Oeste 0 1029.3 0.3 86
2020-01-17 01:00:00 -- 7 Noroeste 13 Noroeste 0 1029.2 0.4 86
2020-01-17 00:00:00 -- 0 Calma 6 Noroeste 0 1029.4 1.2 89
2020-01-16 23:00:00 -- 4 Oeste 10 Oeste 0 1029 1 90
2020-01-16 22:00:00 -- 4 Oeste 11 Oeste 0 1028.8 1.2 89
2020-01-16 21:00:00 -- 2 Noroeste 10 Oeste 0 1028.2 1.1 88
2020-01-16 20:00:00 -- 3 Oeste 9 Oeste 0 1028 1.1 87
2020-01-16 19:00:00 -- 2 Oeste 9 Oeste 0 1027.6 0.7 87
2020-01-16 18:00:00 -- 2 Sudoeste 13 Sur 0 1027.1 0.2 87
2020-01-16 17:00:00 -- 6 Sudoeste 10 Sur 0 1026.9 -0.5 85
2020-01-16 16:00:00 -- 3 Sur 8 Sur 0 1026.9 -1.2 82
2020-01-16 15:00:00 -- 5 Sudeste 8 Sudeste 0 1026.9 -1.6 82
2020-01-16 14:00:00 -- 5 Sudeste 11 Sudeste 0 1027.4 -1 82
2020-01-16 13:00:00 -- 6 Sudeste 12 Sudeste 0 1028.1 0.3 81
2020-01-16 12:00:00 -- 2 Sudeste 7 Este 0 1028.5 1.1 86
2020-01-16 11:00:00 -- 0 Calma 12 Oeste 0 1028.4 1.5 86
2020-01-16 10:00:00 -- 4 Noroeste 13 Noroeste 0 1027.8 1.4 91
2020-01-16 09:00:00 -- 7 Noroeste 17 Noroeste 0 1027.4 1.1 93
2020-01-16 08:00:00 -- 8 Noroeste 14 Oeste 0 1026.9 0.1 94
2020-01-16 07:00:00 -- 9 Noroeste 16 Oeste 0 1026.4 -0.5 94
2020-01-16 06:00:00 -- 9 Noroeste 15 Oeste 0 1026.3 -0.6 94
2020-01-16 05:00:00 -- 10 Oeste 17 Oeste 0 1026.8 -0.3 94
2020-01-16 04:00:00 -- 6 Noroeste 15 Oeste 0 1026.9 -0.4 94
2020-01-16 03:00:00 -- 6 Noroeste 13 Oeste 0 1026.9 -0.6 93
2020-01-16 02:00:00 -- 9 Noroeste 14 Oeste 0 1027.1 -0.2 91
2020-01-16 01:00:00 -- 4 Noroeste 9 Noroeste 0 1027.3 0.2 88
2020-01-16 00:00:00 -- 4 Noroeste 14 Este 0 1027.5 0.6 90
2020-01-15 23:00:00 -- 9 Nordeste 19 Este 0 1027.3 0.9 93
2020-01-15 22:00:00 -- 13 Nordeste 23 Nordeste 0 1027.1 1.1 93
2020-01-15 21:00:00 -- 14 Nordeste 23 Nordeste 0 1026.9 1.2 87
2020-01-15 20:00:00 -- 4 Oeste 8 Oeste 0 1026.4 0.9 76
2020-01-15 19:00:00 -- 2 Oeste 7 Oeste 0 1026 1 78
2020-01-15 18:00:00 -- 2 Oeste 12 Sudoeste 0 1025.7 0.7 73
2020-01-15 17:00:00 -- 5 Sudoeste 21 Sur 0 1025.5 0.2 78
2020-01-15 16:00:00 -- 9 Sudoeste 21 Sudoeste 0 1025 -0.9 78
2020-01-15 15:00:00 -- 6 Sudoeste 19 Sudoeste 0 1025 -1.3 73
2020-01-15 14:00:00 -- 5 Sudoeste 18 Sur 0 1025.3 -0.7 72
2020-01-15 13:00:00 -- 10 Sudoeste 20 Sudoeste 0 1025.9 0.7 75
2020-01-15 12:00:00 -- 2 Sur 8 Sudoeste 0 1026.3 1.6 71
2020-01-15 11:00:00 -- 0 Calma 14 Oeste 0 1026 1.8 76
2020-01-15 10:00:00 -- 9 Noroeste 19 Oeste 0 1025.2 2 77
2020-01-15 09:00:00 -- 9 Noroeste 16 Noroeste 0 1024.7 1.8 78
2020-01-15 08:00:00 -- 11 Noroeste 18 Oeste 0 1024.2 1.3 77
2020-01-15 07:00:00 -- 9 Oeste 15 Noroeste 0 1023.2 0.1 76
2020-01-15 06:00:00 -- 8 Oeste 15 Oeste 0 1022.9 -0.4 76
2020-01-15 05:00:00 -- 9 Oeste 17 Oeste 0 1022.9 -0.2 75
2020-01-15 04:00:00 -- 7 Oeste 13 Oeste 0 1023.1 -0.5 74
2020-01-15 03:00:00 -- 6 Oeste 15 Oeste 0 1023.3 0 74
2020-01-15 02:00:00 -- 8 Oeste 14 Oeste 0 1023.1 -0.1 73
2020-01-15 01:00:00 -- 9 Oeste 16 Oeste 0 1023.6 0.4 73
2020-01-15 00:00:00 -- 6 Noroeste 13 Oeste 0 1023.3 0.3 72
2020-01-14 23:00:00 -- 5 Noroeste 17 Oeste 0 1023.2 0 73
2020-01-14 22:00:00 -- 7 Noroeste 14 Noroeste 0 1023.2 0.5 74
2020-01-14 21:00:00 -- 7 Noroeste 12 Oeste 0 1023 0.6 78
2020-01-14 20:00:00 -- 5 Noroeste 10 Oeste 0 1023.2 1.2 76
2020-01-14 19:00:00 -- 3 Noroeste 8 Oeste 0 1022.7 0.8 72
2020-01-14 18:00:00 -- 2 Oeste 14 Sudoeste 0 1022.4 0.5 74
2020-01-14 17:00:00 -- 8 Sudoeste 14 Sur 0 1022 -0.3 78
2020-01-14 16:00:00 -- 4 Oeste 18 Oeste 0 1021.9 -1.5 72
2020-01-14 15:00:00 -- 5 Oeste 15 Oeste 0 1021.9 -2.2 73
2020-01-14 14:00:00 -- 5 Sudoeste 15 Sudoeste 0 1022.3 -1.6 74
2020-01-14 13:00:00 -- 9 Sudoeste 17 Sudoeste 0 1023.4 0.1 82
2020-01-14 12:00:00 -- 2 Oeste 9 Oeste 0 1024.1 1.3 75
2020-01-14 11:00:00 -- 6 Oeste 14 Oeste 0 1023.9 1.2 79
2020-01-14 10:00:00 -- 7 Noroeste 15 Oeste 0 1023.3 1 82
2020-01-14 09:00:00 -- 5 Noroeste 15 Oeste 0 1022.8 1 81
2020-01-14 08:00:00 -- 8 Noroeste 17 Oeste 0 1022.7 0.9 82
2020-01-14 07:00:00 -- 7 Noroeste 16 Noroeste 0 1022.3 0 82
2020-01-14 06:00:00 -- 9 Noroeste 15 Noroeste 0 1021.8 -0.7 84
2020-01-14 05:00:00 -- 7 Noroeste 17 Oeste 0 1021.8 -1.1 84
2020-01-14 04:00:00 -- 7 Noroeste 19 Oeste 0 1022.3 -1 84
2020-01-14 03:00:00 -- 6 Noroeste 14 Noroeste 0 1022.5 -1.3 84
2020-01-14 02:00:00 -- 8 Noroeste 14 Oeste 0 1022.9 -1 85
2020-01-14 01:00:00 -- 5 Noroeste 13 Oeste 0 1023.3 -0.6 88
2020-01-14 00:00:00 -- 5 Noroeste 13 Noroeste 0 1023.8 -0.6 88
2020-01-13 23:00:00 -- 7 Noroeste 14 Oeste 0 1023.9 -0.6 87
2020-01-13 22:00:00 -- 5 Noroeste 13 Oeste 0 1023.9 -0.7 87
2020-01-13 21:00:00 -- 4 Oeste 9 Oeste 0 1024.4 0 83
2020-01-13 20:00:00 -- 2 Noroeste 10 Oeste 0 1024.5 0.1 81
2020-01-13 19:00:00 -- 3 Oeste 10 Oeste 0 1024.6 0 80
2020-01-13 18:00:00 -- 4 Oeste 17 Sur 0 1024.4 -0.4 79
2020-01-13 17:00:00 -- 6 Sudoeste 13 Sur 0 1024.4 -1.3 80
2020-01-13 16:00:00 -- 6 Sur 11 Sur 0 1024.6 -2.1 79
2020-01-13 15:00:00 -- 7 Sudeste 13 Sudeste 0 1024.8 -2.7 80
2020-01-13 14:00:00 -- 8 Sudeste 12 Sudeste 0 1025.7 -2 82
2020-01-13 13:00:00 -- 8 Sudeste 12 Sudeste 0 1026.7 -0.5 84
2020-01-13 12:00:00 -- 6 Este 10 Sudeste 0 1027.5 0.7 88
2020-01-13 11:00:00 -- 0 Calma 9 Oeste 0 1027.7 0.7 91
2020-01-13 10:00:00 -- 5 Noroeste 13 Oeste 0 1027.2 0.5 93
2020-01-13 09:00:00 -- 6 Noroeste 13 Noroeste 0 1026.8 0.2 94
2020-01-13 08:00:00 -- 8 Noroeste 13 Noroeste 0 1027 -0.1 94
2020-01-13 07:00:00 -- 5 Noroeste 12 Noroeste 0 1026.7 -0.8 93
2020-01-13 06:00:00 -- 4 Noroeste 13 Noroeste 0 1026.6 -1.1 93
2020-01-13 05:00:00 -- 6 Noroeste 13 Oeste 0 1027.1 -0.8 93
2020-01-13 04:00:00 -- 6 Noroeste 12 Noroeste 0 1027.5 -0.9 92
2020-01-13 03:00:00 -- 6 Noroeste 13 Oeste 0 1027.7 -1.1 92
2020-01-13 02:00:00 -- 7 Noroeste 14 Noroeste 0 1027.9 -0.8 91
2020-01-13 01:00:00 -- 7 Noroeste 13 Noroeste 0 1028.4 -0.3 91
2020-01-13 00:00:00 -- 8 Noroeste 13 Oeste 0 1028.8 0.1 90
2020-01-12 23:00:00 -- 7 Noroeste 12 Noroeste 0 1028.7 0.2 88
2020-01-12 22:00:00 -- 7 Noroeste 10 Noroeste 0 1028.7 0.8 87
2020-01-12 21:00:00 -- 7 Noroeste 9 Noroeste 0 1028.7 1.3 85
2020-01-12 20:00:00 -- 3 Noroeste 9 Oeste 0 1028.5 1.2 83
2020-01-12 19:00:00 -- 4 Oeste 12 Sudoeste 0 1027.9 0.4 82
2020-01-12 18:00:00 -- 4 Sudoeste 14 Sur 0 1027.4 -0.3 81
2020-01-12 17:00:00 -- 5 Sudoeste 18 Sudoeste 0 1027.3 -1.1 80
2020-01-12 16:00:00 -- 10 Sudoeste 17 Sudoeste 0 1027.5 -1.9 83
2020-01-12 15:00:00 -- 11 Sudoeste 16 Sur 0 1027.7 -2.7 84
2020-01-12 14:00:00 -- 9 Sur 14 Sur 0 1028.4 -2.1 84
2020-01-12 13:00:00 -- 9 Sur 12 Sudoeste 0 1029.4 -0.7 83
2020-01-12 12:00:00 -- 4 Sur 7 Sur 0 1030.4 0.5 86
2020-01-12 11:00:00 -- 3 Oeste 12 Noroeste 0 1030.5 0.9 87
2020-01-12 10:00:00 -- 7 Noroeste 13 Oeste 0 1030.1 0.5 90
2020-01-12 09:00:00 -- 6 Noroeste 12 Oeste 0 1029.9 0.4 90
2020-01-12 08:00:00 -- 6 Noroeste 12 Noroeste 0 1029.6 -0.1 90
2020-01-12 07:00:00 -- 6 Noroeste 12 Oeste 0 1029.6 -0.5 89
2020-01-12 06:00:00 -- 5 Noroeste 11 Noroeste 0 1029.5 -0.5 89
2020-01-12 05:00:00 -- 6 Noroeste 10 Noroeste 0 1029.7 -0.4 88
2020-01-12 04:00:00 -- 4 Noroeste 10 Noroeste 0 1030.1 -0.1 87
2020-01-12 03:00:00 -- 5 Noroeste 10 Noroeste 0 1030 -0.4 85
2020-01-12 02:00:00 -- 4 Noroeste 12 Oeste 0 1030.1 -0.2 85
2020-01-12 01:00:00 -- 6 Noroeste 14 Oeste 0 1030.2 0 85
2020-01-12 00:00:00 -- 6 Noroeste 11 Oeste 0 1030.4 0.5 84
2020-01-11 23:00:00 -- 6 Noroeste 12 Noroeste 0 1030.3 0.7 82
2020-01-11 22:00:00 -- 6 Noroeste 12 Oeste 0 1030.2 1.2 80
2020-01-11 21:00:00 -- 5 Noroeste 10 Noroeste 0 1029.9 1.4 79
2020-01-11 20:00:00 -- 5 Noroeste 8 Noroeste 0 1029.6 1.6 76
2020-01-11 19:00:00 -- 2 Sudeste 8 Sudeste 0 1029 1.4 75
2020-01-11 18:00:00 -- 7 Sur 12 Sur 0 1028.5 1 74
2020-01-11 17:00:00 -- 8 Sudoeste 16 Sudoeste 0 1028 -0.1 74
2020-01-11 16:00:00 -- 6 Sudoeste 16 Sudoeste 0 1027.6 -1.1 74
2020-01-11 15:00:00 -- 9 Sudoeste 13 Sur 0 1027.5 -1.8 80
2020-01-11 14:00:00 -- 8 Sudoeste 13 Sur 0 1028.1 -1.1 80
2020-01-11 13:00:00 -- 9 Sur 10 Sur 0 1028.7 0.3 79
2020-01-11 12:00:00 -- 5 Sur 8 Oeste 0 1029.3 1.6 76
2020-01-11 11:00:00 -- 5 Oeste 14 Oeste 0 1029.2 2 70
2020-01-11 10:00:00 -- 8 Noroeste 14 Oeste 0 1028.4 1.6 71
2020-01-11 09:00:00 -- 8 Noroeste 14 Oeste 0 1027.7 1.3 73
2020-01-11 08:00:00 -- 9 Noroeste 13 Noroeste 0 1027.2 0.8 74
2020-01-11 07:00:00 -- 6 Noroeste 12 Noroeste 0 1026.8 0.4 73
2020-01-11 06:00:00 -- 8 Noroeste 12 Noroeste 0 1026.4 0.1 74
2020-01-11 05:00:00 -- 4 Noroeste 8 Oeste 0 1026.4 0.5 74
2020-01-11 04:00:00 -- 5 Noroeste 8 Noroeste 0 1026.4 0.4 74
2020-01-11 03:00:00 -- 4 Noroeste 16 Nordeste 0 1026.3 0.1 72
2020-01-11 02:00:00 -- 10 Nordeste 19 Nordeste 0 1025.9 0 73
2020-01-11 01:00:00 -- 13 Este 20 Este 0 1026 0.4 74
2020-01-11 00:00:00 -- 9 Nordeste 15 Nordeste 0 1026.2 1.4 70
2020-01-10 23:00:00 -- 5 Noroeste 15 Nordeste 0 1025.9 2.4 63
2020-01-10 22:00:00 -- 9 Nordeste 28 Nordeste 0 1025.6 2.8 61
2020-01-10 21:00:00 -- 13 Nordeste 38 Norte 0 1024.8 3 54
2020-01-10 20:00:00 -- 17 Norte 45 Norte 0 1023.5 2.1 51
2020-01-10 19:00:00 -- 18 Norte 48 Norte 0 1022.8 1.3 55
2020-01-10 18:00:00 -- 8 Oeste 22 Oeste 0 1021.8 -0.1 63
2020-01-10 17:00:00 -- 8 Noroeste 35 Norte 0 1021.4 -0.7 60
2020-01-10 16:00:00 -- 14 Norte 33 Norte 0 1021.5 -1.4 60
2020-01-10 15:00:00 -- 15 Norte 35 Nordeste 0 1021.9 -2.4 59
2020-01-10 14:00:00 -- 8 Norte 36 Norte 0 1022.1 -2.5 63
2020-01-10 13:00:00 -- 6 Noroeste 26 Oeste 0 1022.9 -1.2 67
2020-01-10 12:00:00 -- 6 Oeste 19 Oeste 0 1024.3 0.5 71
2020-01-10 11:00:00 -- 6 Noroeste 23 Noroeste 0 1024.6 1 76
2020-01-10 10:00:00 -- 8 Oeste 21 Oeste 0 1024.1 0.3 77
2020-01-10 09:00:00 -- 8 Norte 21 Noroeste 0 1023.8 0.3 75
2020-01-10 08:00:00 -- 0 Calma 22 Norte 0 1023.6 0.1 79
2020-01-10 07:00:00 -- 9 Norte 23 Oeste 0 1023.8 -0.1 79
2020-01-10 06:00:00 -- 5 Noroeste 22 Oeste 0 1023.5 -0.8 79
2020-01-10 05:00:00 -- 7 Noroeste 21 Oeste 0 1023.5 -1.2 80
2020-01-10 04:00:00 -- 4 Norte 21 Oeste 0 1023.9 -1.7 82
2020-01-10 03:00:00 -- 4 Norte 13 Oeste 0 1024.3 -1.7 85
2020-01-10 02:00:00 -- 7 Oeste 17 Oeste 0 1024.7 -1.4 86
2020-01-10 01:00:00 -- 5 Noroeste 15 Oeste 0 1025.6 -0.2 87
2020-01-10 00:00:00 -- 5 Noroeste 12 Oeste 0 1026 -0.2 90
2020-01-09 23:00:00 -- 0 Calma 12 Oeste 0 1026.1 -0.5 90
2020-01-09 22:00:00 -- 6 Oeste 10 Oeste 0 1025.8 0.1 90
2020-01-09 21:00:00 -- 5 Noroeste 9 Oeste 0 1026.2 0.8 88
2020-01-09 20:00:00 -- 3 Oeste 7 Noroeste 0 1026.6 0.8 86
2020-01-09 19:00:00 -- 4 Noroeste 9 Oeste 0 1025.7 -0.1 85
2020-01-09 18:00:00 -- 2 Sudoeste 8 Sudoeste 0 1025.4 -0.7 85
2020-01-09 17:00:00 -- 3 Sudoeste 8 Sur 0 1025.8 -1 84
2020-01-09 16:00:00 -- 5 Sur 10 Sudeste 0 1025.8 -1.8 82
2020-01-09 15:00:00 -- 5 Sudeste 10 Este 0 1026.1 -2.3 82
2020-01-09 14:00:00 -- 4 Este 8 Este 0 1026.8 -1.7 82
2020-01-09 13:00:00 -- 5 Este 11 Este 0 1027.6 -0.4 84
2020-01-09 12:00:00 -- 3 Este 10 Este 0 1028.4 1 86
2020-01-09 11:00:00 -- 6 Este 11 Este 0 1028.5 1.2 88
2020-01-09 10:00:00 -- 0 Calma 6 Norte 0 1028 0.8 92
2020-01-09 09:00:00 -- 2 Noroeste 7 Oeste 0 1027.4 0.2 92
2020-01-09 08:00:00 -- 3 Noroeste 8 Noroeste 0 1027.3 -0.2 92
2020-01-09 07:00:00 -- 4 Noroeste 9 Noroeste 0 1027.2 -0.7 92
2020-01-09 06:00:00 -- 5 Noroeste 10 Noroeste 0 1027.2 -1.1 92
2020-01-09 05:00:00 -- 5 Noroeste 10 Noroeste 0 1027.5 -1 92
2020-01-09 04:00:00 -- 6 Noroeste 10 Noroeste 0 1027.9 -0.8 91
2020-01-09 03:00:00 -- 4 Este 14 Este 0 1028.3 -0.7 90
2020-01-09 02:00:00 -- 9 Este 15 Este 0 1028.5 -0.3 92
2020-01-09 01:00:00 -- 11 Este 19 Este 0 1028.7 0.2 92
2020-01-09 00:00:00 -- 13 Este 20 Nordeste 0 1029 0.9 92
2020-01-08 23:00:00 -- 11 Nordeste 18 Nordeste 0 1028.8 1 91
2020-01-08 22:00:00 -- 9 Nordeste 15 Este 0 1028.5 1 90
2020-01-08 21:00:00 -- 8 Nordeste 14 Nordeste 0 1028.1 1.1 90
2020-01-08 20:00:00 -- 7 Este 12 Este 0 1027.8 1.1 90
2020-01-08 19:00:00 -- 6 Sudeste 10 Este 0 1027.5 1 89
2020-01-08 18:00:00 -- 4 Sudeste 8 Sudeste 0 1027 0.4 87
2020-01-08 17:00:00 -- 5 Sur 9 Sur 0 1026.7 0.2 87
2020-01-08 16:00:00 -- 5 Sudeste 9 Sudeste 0 1026.5 -1.2 88
2020-01-08 15:00:00 -- 5 Sudeste 9 Sudeste 0 1026.6 -1.9 89
2020-01-08 14:00:00 -- 7 Sudeste 24 Sudeste 0 1026.5 -2.3 90
2020-01-08 13:00:00 -- 4 Sudeste 7 Sudeste 0 1027.7 -0.7 92
2020-01-08 12:00:00 -- 4 Este 8 Este 0 1028.5 0.6 93
2020-01-08 11:00:00 -- 3 Noroeste 8 Noroeste 0 1028.8 1.4 93
2020-01-08 10:00:00 -- 5 Noroeste 12 Noroeste 0 1028.4 1.4 94
2020-01-08 09:00:00 -- 8 Noroeste 13 Noroeste 0 1027.9 0.9 94
2020-01-08 08:00:00 -- 8 Noroeste 14 Noroeste 0 1027.4 0.2 94
2020-01-08 07:00:00 -- 8 Noroeste 15 Oeste 0 1027 -0.7 94
2020-01-08 06:00:00 -- 9 Noroeste 17 Oeste 0 1027 -1.1 95
2020-01-08 05:00:00 -- 9 Oeste 15 Oeste 0 1027.2 -0.9 95
2020-01-08 04:00:00 -- 9 Noroeste 16 Oeste 0 1027.7 -0.9 95
2020-01-08 03:00:00 -- 7 Noroeste 14 Noroeste 0 1028.1 -1 94
2020-01-08 02:00:00 -- 9 Oeste 14 Oeste 0 1028.1 -1.4 94
2020-01-08 01:00:00 -- 8 Noroeste 14 Noroeste 0 1028.6 -1.1 93
2020-01-08 00:00:00 -- 7 Noroeste 14 Noroeste 0 1029.1 -0.3 93
2020-01-07 23:00:00 -- 6 Noroeste 12 Oeste 0 1029.5 0.3 92
2020-01-07 22:00:00 -- 5 Noroeste 11 Noroeste 0 1029.7 0.7 91
2020-01-07 21:00:00 -- 5 Noroeste 10 Noroeste 0 1029.4 0.4 90
2020-01-07 20:00:00 -- 5 Oeste 10 Oeste 0 1029.2 0.5 88
2020-01-07 19:00:00 -- 5 Este 10 Este 0 1029 0.2 87
2020-01-07 18:00:00 -- 5 Este 10 Sudeste 0 1029 0.1 84
2020-01-07 17:00:00 -- 6 Sudeste 11 Sudeste 0 1028.7 -0.6 84
2020-01-07 16:00:00 -- 6 Sudeste 18 Sudeste 0 1028.8 -1.5 85
2020-01-07 15:00:00 -- 5 Sudeste 9 Sudeste 0 1028.9 -2.1 85
2020-01-07 14:00:00 -- 7 Sudeste 12 Sudeste 0 1029.3 -2.1 84
2020-01-07 13:00:00 -- 6 Sudeste 9 Sudeste 0 1030.3 -0.5 85
2020-01-07 12:00:00 -- 2 Sudeste 4 Sudeste 0 1031 1.1 88
2020-01-07 11:00:00 -- 3 Oeste 10 Oeste 0 1031.4 1.7 88
2020-01-07 10:00:00 -- 5 Noroeste 12 Noroeste 0 1030.8 1.4 91
2020-01-07 09:00:00 -- 8 Noroeste 15 Noroeste 0 1029.9 0.6 92
2020-01-07 08:00:00 -- 8 Noroeste 13 Noroeste 0 1029.7 0.5 92
2020-01-07 07:00:00 -- 8 Noroeste 12 Noroeste 0 1029.4 -0.1 92
2020-01-07 06:00:00 -- 7 Noroeste 14 Noroeste 0 1029.3 -0.1 91
2020-01-07 05:00:00 -- 7 Noroeste 12 Noroeste 0 1029.2 -0.3 91
2020-01-07 04:00:00 -- 8 Noroeste 13 Noroeste 0 1029.5 -0.2 90
2020-01-07 03:00:00 -- 7 Noroeste 14 Oeste 0 1029.4 -0.4 90
2020-01-07 02:00:00 -- 8 Noroeste 11 Noroeste 0 1029.5 -0.2 90
2020-01-07 01:00:00 -- 7 Noroeste 11 Noroeste 0 1029.7 0.2 90
2020-01-07 00:00:00 -- 6 Noroeste 13 Oeste 0 1029.8 0.9 90
2020-01-06 23:00:00 -- 9 Noroeste 14 Noroeste 0 1029.7 1.1 89
2020-01-06 22:00:00 -- 6 Noroeste 12 Sudoeste 0 1029.5 1.5 88
2020-01-06 21:00:00 -- 4 Noroeste 8 Norte 0 1028.9 1.2 87
2020-01-06 20:00:00 -- 3 Noroeste 5 Noroeste 0 1028.6 1 84
2020-01-06 19:00:00 -- 3 Sudeste 9 Sur 0 1028 0.9 83
2020-01-06 18:00:00 -- 7 Sudeste 10 Sudeste 0 1027.7 0.4 80
2020-01-06 17:00:00 -- 7 Sudeste 16 Sudeste 0 1027.6 -0.2 79
2020-01-06 16:00:00 -- 10 Sudeste 18 Sudeste 0 1027.1 -1.6 79
2020-01-06 15:00:00 -- 13 Sudeste 19 Sudeste 0 1027.3 -1.8 80
2020-01-06 14:00:00 -- 12 Sudeste 17 Sudeste 0 1027.8 -1.5 80
2020-01-06 13:00:00 -- 10 Este 15 Este 0 1028.7 -0.1 79
2020-01-06 12:00:00 -- 11 Este 14 Este 0 1029.1 0.9 83
2020-01-06 11:00:00 -- 4 Noroeste 9 Noroeste 0 1029.3 1.7 86
2020-01-06 10:00:00 -- 4 Noroeste 10 Noroeste 0 1028.8 1.7 89